createdAt,value
2022-12-25T00:00:36.717Z,3.60
2022-12-25T00:03:07.712Z,3.25
2022-12-25T00:05:52.601Z,4.20
2022-12-25T00:08:25.459Z,7.30
2022-12-25T00:11:01.778Z,2.95
2022-12-25T00:13:32.706Z,3.28
2022-12-25T00:16:11.915Z,2.60
2022-12-25T00:18:42.860Z,4.50
2022-12-25T00:21:17.299Z,5.13
2022-12-25T00:23:56.987Z,3.35
2022-12-25T00:26:28.517Z,3.17
2022-12-25T00:29:00.912Z,6.05
2022-12-25T00:31:31.632Z,6.05
2022-12-25T00:34:02.381Z,5.30
2022-12-25T00:36:36.323Z,2.78
2022-12-25T00:39:13.775Z,1.70
2022-12-25T00:42:01.258Z,3.13
2022-12-25T00:44:33.578Z,6.20
2022-12-25T00:47:04.478Z,3.30
2022-12-25T00:59:34.938Z,4.07
2022-12-25T01:11:02.383Z,2.20
2022-12-25T01:13:35.551Z,3.88
2022-12-25T01:16:12.130Z,3.42
2022-12-25T01:18:44.208Z,2.90
2022-12-25T01:21:17.178Z,2.85
2022-12-25T01:23:48.386Z,5.78
2022-12-25T01:26:20.614Z,6.45
2022-12-25T01:28:52.417Z,3.63
2022-12-25T01:31:26.025Z,4.00
2022-12-25T01:33:56.745Z,3.15
2022-12-25T01:36:28.828Z,1.77
2022-12-25T01:38:59.354Z,2.22
2022-12-25T01:41:30.041Z,2.42
2022-12-25T01:44:03.843Z,4.38
2022-12-25T01:46:36.795Z,2.05
2022-12-25T01:49:10.679Z,3.35
2022-12-25T01:51:43.654Z,2.53
2022-12-25T01:54:20.430Z,2.50
2022-12-25T01:56:54.484Z,2.45
2022-12-25T01:59:29.087Z,5.68
2022-12-25T02:02:02.724Z,4.50
2022-12-25T02:04:44.178Z,2.67
2022-12-25T02:07:18.532Z,1.63
2022-12-25T02:09:50.100Z,2.60
2022-12-25T02:12:24.745Z,2.78
2022-12-25T02:15:05.360Z,3.08
2022-12-25T02:17:44.141Z,1.95
2022-12-25T02:20:49.818Z,2.65
2022-12-25T02:23:50.306Z,3.38
2022-12-25T02:26:38.755Z,1.33
2022-12-25T02:29:19.290Z,3.13
2022-12-25T02:31:56.985Z,2.25
2022-12-25T02:34:34.680Z,2.78
2022-12-25T02:37:15.589Z,1.38
2022-12-25T02:40:01.560Z,2.38
2022-12-25T02:43:05.699Z,1.65
2022-12-25T02:45:59.844Z,2.20
2022-12-25T02:48:52.282Z,2.90
2022-12-25T02:51:43.640Z,1.50
2022-12-25T02:54:35.661Z,1.15
2022-12-25T02:57:28.853Z,1.40
2022-12-25T03:00:29.364Z,2.85
2022-12-25T03:03:30.014Z,1.27
2022-12-25T03:06:23.813Z,1.85
2022-12-25T03:09:22.527Z,3.42
2022-12-25T03:12:03.894Z,3.28
2022-12-25T03:14:54.179Z,2.25
2022-12-25T03:17:31.454Z,3.67
2022-12-25T03:20:20.575Z,2.55
2022-12-25T03:23:08.069Z,1.25
2022-12-25T03:25:57.733Z,2.35
2022-12-25T03:28:29.061Z,2.45
2022-12-25T03:31:17.303Z,1.95
2022-12-25T03:34:35.416Z,1.08
2022-12-25T03:37:37.293Z,2.05
2022-12-25T03:40:37.202Z,1.63
2022-12-25T03:43:47.281Z,2.90
2022-12-25T03:49:28.982Z,3.40
2022-12-25T03:52:20.398Z,3.42
2022-12-25T03:55:12.966Z,3.53
2022-12-25T03:58:03.222Z,2.38
2022-12-25T04:00:56.901Z,1.75
2022-12-25T04:03:48.578Z,1.15
2022-12-25T04:06:43.867Z,3.63
2022-12-25T04:12:49.966Z,1.08
2022-12-25T04:15:43.730Z,1.27
2022-12-25T04:18:52.727Z,4.25
2022-12-25T04:21:45.642Z,1.45
2022-12-25T04:24:43.204Z,1.58
2022-12-25T04:27:38.953Z,1.77
2022-12-25T04:30:35.291Z,3.70
2022-12-25T04:33:37.953Z,2.25
2022-12-25T04:36:16.881Z,2.42
2022-12-25T04:38:54.665Z,2.65
2022-12-25T04:44:36.856Z,2.58
2022-12-25T04:47:26.146Z,1.83
2022-12-25T04:53:13.722Z,3.55
2022-12-25T04:58:53.593Z,3.95
2022-12-25T05:01:46.817Z,4.70
2022-12-25T05:04:34.203Z,4.00
2022-12-25T05:07:11.771Z,7.03
2022-12-25T05:10:04.618Z,10.00
2022-12-25T05:12:49.430Z,6.97
2022-12-25T05:18:51.158Z,6.60
2022-12-25T05:21:31.887Z,4.28
2022-12-25T05:24:34.372Z,5.22
2022-12-25T05:27:10.035Z,7.13
2022-12-25T05:30:00.403Z,5.15
2022-12-25T05:32:50.000Z,9.38
2022-12-25T05:35:53.441Z,7.88
2022-12-25T05:42:02.901Z,7.93
2022-12-25T05:47:57.792Z,8.43
2022-12-25T05:51:07.756Z,9.32
2022-12-25T05:53:55.592Z,8.90
2022-12-25T05:56:42.610Z,9.93
2022-12-25T05:59:26.092Z,4.60
2022-12-25T06:02:10.990Z,5.20
2022-12-25T06:05:01.225Z,11.32
2022-12-25T06:10:57.633Z,12.20
2022-12-25T06:14:01.627Z,10.40
2022-12-25T06:16:59.927Z,11.30
2022-12-25T06:19:40.270Z,8.38
2022-12-25T06:22:47.248Z,14.25
2022-12-25T06:25:31.255Z,10.65
2022-12-25T06:28:19.498Z,7.30
2022-12-25T06:30:55.575Z,10.00
2022-12-25T06:34:01.662Z,15.85
2022-12-25T06:36:47.065Z,16.85
2022-12-25T06:39:25.087Z,13.27
2022-12-25T06:42:17.201Z,9.95
2022-12-25T06:44:57.426Z,17.67
2022-12-25T06:47:36.544Z,21.85
2022-12-25T06:50:30.173Z,13.80
2022-12-25T06:53:25.941Z,15.63
2022-12-25T06:56:12.338Z,13.57
2022-12-25T06:59:21.162Z,15.40
2022-12-25T08:22:52.726Z,13.90
2022-12-25T08:25:37.595Z,13.13
2022-12-25T08:28:20.523Z,8.75
2022-12-25T08:31:00.468Z,13.57
2022-12-25T08:33:38.274Z,17.00
2022-12-25T08:36:21.015Z,6.75
2022-12-25T08:42:31.016Z,17.08
2022-12-25T08:45:37.415Z,16.63
2022-12-25T08:48:35.791Z,10.25
2022-12-25T08:51:17.332Z,9.88
2022-12-25T08:53:57.160Z,8.90
2022-12-25T08:56:42.295Z,14.68
2022-12-25T08:59:28.922Z,8.75
2022-12-25T09:02:07.403Z,12.57
2022-12-25T09:04:42.222Z,12.27
2022-12-25T09:07:34.603Z,15.60
2022-12-25T09:10:31.189Z,9.07
2022-12-25T09:13:22.486Z,9.00
2022-12-25T09:15:59.439Z,12.27
2022-12-25T09:18:44.402Z,8.60
2022-12-25T09:21:31.405Z,10.70
2022-12-25T09:24:07.737Z,16.20
2022-12-25T09:27:00.520Z,9.98
2022-12-25T09:29:49.215Z,13.75
2022-12-25T09:32:31.436Z,10.88
2022-12-25T09:35:07.484Z,6.97
2022-12-25T09:37:46.632Z,8.80
2022-12-25T09:40:33.764Z,7.82
2022-12-25T09:43:18.053Z,5.38
2022-12-25T09:46:05.037Z,6.13
2022-12-25T09:48:41.502Z,7.72
2022-12-25T09:51:26.219Z,6.15
2022-12-25T09:54:20.063Z,8.25
2022-12-25T09:57:10.583Z,6.28
2022-12-25T09:59:55.389Z,10.27
2022-12-25T10:02:50.392Z,10.18
2022-12-25T10:05:54.534Z,6.60
2022-12-25T10:12:02.209Z,7.95
2022-12-25T10:14:45.679Z,7.07
2022-12-25T10:17:44.558Z,3.85
2022-12-25T10:20:42.070Z,7.38
2022-12-25T10:23:31.701Z,5.78
2022-12-25T10:26:17.797Z,6.55
2022-12-25T10:29:28.956Z,7.30
2022-12-25T10:32:03.672Z,3.13
2022-12-25T10:34:57.401Z,3.70
2022-12-25T10:37:53.837Z,13.95
2022-12-25T10:41:08.574Z,4.38
2022-12-25T10:43:53.416Z,6.88
2022-12-25T10:46:37.834Z,9.50
2022-12-25T10:52:33.181Z,3.72
2022-12-25T10:58:34.788Z,5.88
2022-12-25T11:01:20.386Z,4.95
2022-12-25T11:04:09.537Z,6.05
2022-12-25T11:07:00.724Z,4.53
2022-12-25T11:09:36.260Z,6.72
2022-12-25T11:12:33.870Z,7.68
2022-12-25T11:15:50.793Z,5.32
2022-12-25T11:18:32.863Z,8.27
2022-12-25T11:21:11.484Z,7.63
2022-12-25T11:23:53.023Z,2.63
2022-12-25T11:26:39.493Z,7.90
2022-12-25T11:29:51.591Z,6.53
2022-12-25T11:32:40.769Z,5.10
2022-12-25T11:35:32.143Z,6.90
2022-12-25T11:38:29.303Z,5.57
2022-12-25T11:41:14.844Z,6.88
2022-12-25T11:43:54.326Z,5.03
2022-12-25T11:46:43.514Z,6.75
2022-12-25T11:49:26.219Z,3.85
2022-12-25T11:52:07.951Z,7.53
2022-12-25T11:54:53.087Z,3.03
2022-12-25T11:57:51.676Z,6.50
2022-12-25T12:00:39.116Z,7.15
2022-12-25T12:03:26.474Z,5.78
2022-12-25T12:06:06.444Z,4.15
2022-12-25T12:08:52.910Z,5.15
2022-12-25T12:15:23.121Z,5.43
2022-12-25T12:17:59.974Z,12.35
2022-12-25T12:20:54.359Z,5.38
2022-12-25T12:23:46.814Z,9.25
2022-12-25T12:26:32.908Z,4.85
2022-12-25T12:29:12.795Z,4.13
2022-12-25T12:31:59.326Z,6.47
2022-12-25T12:34:39.438Z,6.63
2022-12-25T12:40:01.555Z,9.25
2022-12-25T12:43:10.082Z,9.93
2022-12-25T12:45:54.613Z,7.45
2022-12-25T12:48:41.549Z,6.50
2022-12-25T12:51:19.046Z,4.70
2022-12-25T12:54:16.921Z,7.57
2022-12-25T12:56:59.988Z,7.78
2022-12-25T12:59:54.915Z,7.82
2022-12-25T13:03:22.226Z,5.03
2022-12-25T13:06:02.820Z,4.75
2022-12-25T13:08:53.620Z,6.03
2022-12-25T13:11:57.972Z,8.30
2022-12-25T13:14:43.100Z,7.30
2022-12-25T13:17:37.092Z,9.75
2022-12-25T13:20:27.025Z,5.05
2022-12-25T13:23:12.053Z,4.80
2022-12-25T13:25:53.428Z,8.38
2022-12-25T13:28:45.392Z,8.63
2022-12-25T13:31:31.931Z,6.50
2022-12-25T13:34:19.861Z,7.70
2022-12-25T13:37:04.212Z,7.82
2022-12-25T13:45:41.868Z,4.13
2022-12-25T13:48:36.310Z,8.18
2022-12-25T13:51:31.615Z,3.20
2022-12-25T13:54:18.703Z,10.13
2022-12-25T13:57:09.414Z,10.60
2022-12-25T14:00:06.669Z,8.73
2022-12-25T14:03:08.339Z,7.05
2022-12-25T14:05:46.189Z,4.80
2022-12-25T14:08:41.596Z,6.60
2022-12-25T14:11:20.651Z,4.63
2022-12-25T14:13:56.899Z,8.18
2022-12-25T14:16:51.510Z,7.43
2022-12-25T14:19:37.694Z,3.42
2022-12-25T14:22:34.703Z,11.30
2022-12-25T14:25:27.842Z,5.93
2022-12-25T14:28:32.206Z,6.60
2022-12-25T14:31:18.155Z,3.47
2022-12-25T14:33:51.479Z,5.38
2022-12-25T14:36:25.735Z,3.05
2022-12-25T14:39:10.209Z,4.90
2022-12-25T14:41:52.291Z,4.75
2022-12-25T14:44:43.837Z,3.15
2022-12-25T14:47:23.470Z,7.93
2022-12-25T14:50:22.095Z,6.47
2022-12-25T14:53:22.563Z,7.07
2022-12-25T14:56:15.419Z,4.82
2022-12-25T14:58:57.372Z,6.30
2022-12-25T15:01:52.202Z,6.55
2022-12-25T15:04:31.553Z,4.47
2022-12-25T15:07:20.729Z,9.35
2022-12-25T15:10:57.430Z,5.15
2022-12-25T15:13:19.168Z,4.57
2022-12-25T15:16:13.232Z,6.68
2022-12-25T15:18:53.185Z,6.25
2022-12-25T15:21:47.375Z,7.15
2022-12-25T15:27:19.929Z,8.82
2022-12-25T15:30:10.658Z,8.10
2022-12-25T15:32:51.146Z,5.55
2022-12-25T15:35:31.072Z,7.83
2022-12-25T15:38:17.784Z,7.65
2022-12-25T15:40:59.684Z,5.25
2022-12-25T15:43:42.969Z,8.85
2022-12-25T15:46:34.446Z,9.23
2022-12-25T15:52:04.845Z,3.65
2022-12-25T15:57:50.035Z,5.80
2022-12-25T16:00:46.103Z,7.75
2022-12-25T16:03:41.105Z,9.60
2022-12-25T16:06:24.567Z,3.83
2022-12-25T16:09:07.406Z,4.50
2022-12-25T16:11:51.039Z,8.95
2022-12-25T16:14:25.695Z,4.43
2022-12-25T16:20:07.324Z,5.95
2022-12-25T16:23:05.900Z,5.03
2022-12-25T16:25:51.246Z,9.15
2022-12-25T16:28:42.641Z,8.13
2022-12-25T16:31:30.660Z,13.35
2022-12-25T16:34:11.519Z,8.88
2022-12-25T16:36:51.657Z,7.47
2022-12-25T16:42:35.688Z,3.22
2022-12-25T16:45:17.693Z,5.97
2022-12-25T16:48:07.141Z,6.22
2022-12-25T16:50:52.500Z,2.80
2022-12-25T16:53:42.016Z,5.60
2022-12-25T16:56:22.444Z,3.67
2022-12-25T16:59:02.091Z,4.20
2022-12-25T17:01:45.271Z,5.28
2022-12-25T17:07:22.933Z,4.43
2022-12-25T17:10:04.266Z,3.80
2022-12-25T17:12:53.400Z,9.98
2022-12-25T17:15:30.916Z,5.35
2022-12-25T17:18:07.410Z,4.90
2022-12-25T17:24:02.313Z,7.80
2022-12-25T17:26:51.022Z,12.13
2022-12-25T17:29:34.085Z,11.93
2022-12-25T17:32:08.265Z,9.90
2022-12-25T17:35:02.184Z,5.30
2022-12-25T17:37:52.550Z,10.40
2022-12-25T17:40:44.175Z,8.85
2022-12-25T17:43:22.692Z,8.63
2022-12-25T17:49:05.693Z,10.98
2022-12-25T17:51:40.185Z,18.13
2022-12-25T17:54:18.704Z,10.07
2022-12-25T17:56:58.058Z,7.95
2022-12-25T17:59:46.540Z,12.00
2022-12-25T18:02:36.843Z,10.18
2022-12-25T18:05:21.783Z,10.40
2022-12-25T18:08:10.345Z,9.70
2022-12-25T18:10:57.948Z,5.72
2022-12-25T18:13:50.852Z,5.20
2022-12-25T18:16:29.547Z,5.20
2022-12-25T18:19:13.544Z,11.30
2022-12-25T18:22:10.123Z,9.77
2022-12-25T18:25:06.787Z,7.70
2022-12-25T18:28:02.654Z,6.10
2022-12-25T18:31:01.552Z,7.15
2022-12-25T18:33:34.572Z,12.90
2022-12-25T18:36:20.963Z,7.85
2022-12-25T18:39:06.952Z,5.60
2022-12-25T18:42:14.862Z,6.78
2022-12-25T18:44:58.714Z,4.32
2022-12-25T18:47:59.333Z,6.78
2022-12-25T18:50:35.907Z,5.35
2022-12-25T18:53:12.424Z,3.28
2022-12-25T18:55:59.302Z,6.03
2022-12-25T18:58:35.302Z,4.60
2022-12-25T19:01:22.467Z,4.65
2022-12-25T19:04:07.940Z,4.13
2022-12-25T19:06:44.128Z,5.07
2022-12-25T19:09:33.111Z,4.75
2022-12-25T19:12:29.846Z,5.55
2022-12-25T19:15:17.444Z,6.55
2022-12-25T19:17:54.318Z,6.63
2022-12-25T19:20:51.489Z,4.90
2022-12-25T19:23:24.095Z,3.03
2022-12-25T19:26:06.652Z,5.03
2022-12-25T19:29:04.695Z,3.92
2022-12-25T19:31:41.213Z,4.05
2022-12-25T19:37:44.391Z,3.40
2022-12-25T19:43:37.881Z,7.03
2022-12-25T19:46:28.388Z,2.08
2022-12-25T19:49:07.380Z,5.05
2022-12-25T19:51:58.060Z,2.45
2022-12-25T19:54:54.299Z,2.20
2022-12-25T19:57:34.782Z,6.63
2022-12-25T20:00:20.098Z,8.48
2022-12-25T20:03:07.870Z,2.30
2022-12-25T20:06:05.399Z,6.95
2022-12-25T20:08:53.165Z,2.35
2022-12-25T20:14:22.225Z,5.00
2022-12-25T20:16:59.996Z,6.88
2022-12-25T20:19:44.932Z,5.72
2022-12-25T20:22:33.463Z,7.60
2022-12-25T20:25:17.843Z,6.97
2022-12-25T20:28:11.430Z,5.07
2022-12-25T20:30:54.939Z,7.32
2022-12-25T20:33:46.545Z,9.77
2022-12-25T20:36:44.462Z,6.43
2022-12-25T20:39:33.893Z,7.03
2022-12-25T20:42:13.262Z,4.93
2022-12-25T20:44:53.147Z,6.10
2022-12-25T20:47:42.190Z,2.50
2022-12-25T20:50:32.493Z,7.68
2022-12-25T20:53:12.668Z,6.22
2022-12-25T20:55:56.115Z,6.53
2022-12-25T20:58:36.122Z,8.70
2022-12-25T21:01:19.567Z,8.65
2022-12-25T21:03:59.632Z,10.80
2022-12-25T21:12:37.191Z,7.80
2022-12-25T21:15:16.865Z,6.90
2022-12-25T21:18:11.256Z,6.25
2022-12-25T21:21:03.116Z,24.27
2022-12-25T21:27:01.181Z,8.65
2022-12-25T21:29:38.581Z,11.18
2022-12-25T21:32:33.361Z,8.07
2022-12-25T21:35:28.958Z,8.00
2022-12-25T21:41:08.356Z,7.00
2022-12-25T21:43:47.319Z,4.35
2022-12-25T21:46:35.903Z,5.05
2022-12-25T21:49:38.692Z,1.45
2022-12-25T21:52:41.151Z,2.80
2022-12-25T21:58:45.895Z,5.65
2022-12-25T22:01:21.223Z,6.85
2022-12-25T22:07:06.988Z,2.80
2022-12-25T22:10:00.719Z,4.50
2022-12-25T22:13:04.777Z,5.65
2022-12-25T22:16:09.740Z,4.25
2022-12-25T22:19:05.323Z,6.50
2022-12-25T22:21:56.921Z,6.85
2022-12-25T22:24:34.745Z,8.60
2022-12-25T22:27:20.632Z,3.90
2022-12-25T22:30:03.951Z,4.30
2022-12-25T22:32:54.016Z,4.60
2022-12-25T22:38:17.430Z,4.47
2022-12-25T22:41:03.624Z,7.20
2022-12-25T22:47:17.815Z,2.55
2022-12-25T22:50:13.970Z,3.53
2022-12-25T22:52:50.008Z,9.25
2022-12-25T22:55:37.955Z,4.65
2022-12-25T22:58:16.063Z,7.22
2022-12-25T23:01:20.663Z,3.13
2022-12-25T23:04:22.648Z,5.28
2022-12-25T23:07:08.278Z,8.35
2022-12-25T23:09:42.512Z,5.22
2022-12-25T23:12:32.003Z,12.55
2022-12-25T23:15:11.642Z,8.82
2022-12-25T23:18:12.032Z,11.00
2022-12-25T23:21:12.719Z,6.35
2022-12-25T23:24:04.812Z,5.47
2022-12-25T23:32:31.086Z,9.25
2022-12-25T23:35:21.643Z,6.70
2022-12-25T23:38:12.505Z,9.45
2022-12-25T23:40:52.629Z,7.43
2022-12-25T23:43:39.031Z,9.77
2022-12-25T23:46:32.037Z,8.40
2022-12-25T23:49:10.026Z,6.97
2022-12-25T23:51:55.844Z,8.05
